首页
METAR-TAF:

METAR-TAF

机场 :

拉巴特, 摩洛哥

拉巴特-塞拉国际机场

纬度: 34-03N, 经度: 006-46W, 海拔: 84米

当前天气观测

该预报发布于9分钟前的18:00 UTC
风速5节,风向西转西北,在西南西北之间变化
温度 18°C
湿度 77%
气压 1013 hPa
能見度: 5000
散云层高于1000英尺
多云层高于1600英尺
多云层高于6600英尺

METAR: GMME 241800Z 29005KT 220V320 5000 SCT010 BKN016 BKN066 18/14 Q1013 NOSIG

时间: 19:09 (18:09 UTC)

预报

该预报发布于1小时和9分钟前的17:00 UTC
预报有效从24日的 18点(UTC)到 25日的 24点(UTC)
风速6节,风向西
能見度: 6000
散云层高于1300英尺
多云层高于1500英尺
多云层高于8000英尺
几率 30% :
短暂存在
从 24日的 18点(UTC)到 25日的 00点(UTC)
能見度: 4000
阵雨
短暂存在
从 25日的 00点(UTC)到 25日的 06点(UTC)
风速8节,风向南转南东
短暂存在
从 25日的 06点(UTC)到 25日的 12点(UTC)
能見度: 4000

TAF: GMME 241700Z 2418/2524 28006KT 6000 SCT013 BKN015 BKN080 PROB30 TEMPO 2418/2500 4000 SHRA TEMPO 2500/2506 16008KT TEMPO 2506/2512 4000 RA

超过4000个机场的气象观测和天气预报(METAR&TAF报告)。

可查询的气象台以黄色和红色小点在地图上表示。

将鼠标移到小点上方,可查看气象台名称。

然后点击查看天气观测和预报。

如需切换地图:点击带黑十字的绿色按钮放大地图;点击带横线的绿色按钮缩小地图;或者点击绿色箭头查看邻近地区的地图。


METAR-TAF: